Time;durP1;ratioP1;P1;durP2;ratioP2;P2;SDS_P1;SDS_P2;PMS_P1;PMS_P2;Temp;Humidity;BMP_temperature;BMP_pressure;BME280_temperature;BME280_humidity;BME280_pressure;Samples;Min_cycle;Max_cycle;Signal;HPM_P1;HPM_P2
2021/07/09 00:02:16;;;;;;;0.30;0.30;;;19.90;99.90;;;;;;4973121;28;20263;-76
2021/07/09 00:04:44;;;;;;;0.30;0.30;;;19.90;99.90;;;;;;4973115;28;20204;-75
2021/07/09 00:07:12;;;;;;;0.30;0.30;;;19.80;99.90;;;;;;4973877;28;20205;-75
2021/07/09 00:09:40;;;;;;;0.30;0.30;;;19.80;99.90;;;;;;4973177;28;20212;-75
2021/07/09 00:12:07;;;;;;;0.30;0.30;;;19.90;99.90;;;;;;4972914;28;20389;-75
2021/07/09 00:14:37;;;;;;;0.30;0.30;;;19.80;99.90;;;;;;4973034;28;20780;-75
2021/07/09 00:17:05;;;;;;;0.30;0.30;;;19.90;99.90;;;;;;4972698;28;20279;-75
2021/07/09 00:19:37;;;;;;;0.40;0.40;;;19.80;99.90;;;;;;4972987;28;20204;-76
2021/07/09 00:22:05;;;;;;;0.30;0.30;;;19.80;99.90;;;;;;4972971;28;20656;-76
2021/07/09 00:24:33;;;;;;;0.30;0.30;;;19.90;99.90;;;;;;4973403;28;20204;-75
2021/07/09 00:27:03;;;;;;;0.20;0.20;;;19.90;99.90;;;;;;4973291;28;20595;-75
2021/07/09 00:29:32;;;;;;;0.20;0.20;;;19.70;99.90;;;;;;4972490;28;20340;-75
2021/07/09 00:31:59;;;;;;;0.20;0.20;;;19.80;99.90;;;;;;4972971;28;20665;-75
2021/07/09 00:34:28;;;;;;;0.30;0.30;;;19.80;99.90;;;;;;4972857;28;20228;-75
2021/07/09 00:36:57;;;;;;;0.20;0.20;;;19.80;99.90;;;;;;4972753;28;20674;-75
2021/07/09 00:39:25;;;;;;;0.30;0.30;;;19.80;99.90;;;;;;4972394;28;20255;-75
2021/07/09 00:41:52;;;;;;;0.30;0.30;;;19.70;99.90;;;;;;4973034;28;20768;-75
2021/07/09 00:44:20;;;;;;;0.40;0.40;;;19.70;99.90;;;;;;4973589;28;20201;-75
2021/07/09 00:46:52;;;;;;;0.30;0.30;;;19.50;99.90;;;;;;4972912;28;20244;-75
2021/07/09 00:49:20;;;;;;;0.40;0.40;;;19.50;99.90;;;;;;4973014;28;20205;-76
2021/07/09 00:51:49;;;;;;;0.30;0.30;;;19.60;99.90;;;;;;4973307;28;20292;-75
2021/07/09 00:54:19;;;;;;;0.20;0.20;;;19.70;99.90;;;;;;4973056;28;20231;-75
2021/07/09 00:56:47;;;;;;;0.30;0.30;;;19.60;99.90;;;;;;4972645;28;20315;-75
2021/07/09 00:59:21;;;;;;;0.40;0.40;;;19.60;99.90;;;;;;4973313;28;20204;-76
2021/07/09 01:01:50;;;;;;;0.20;0.20;;;19.60;99.90;;;;;;4973110;28;20228;-76
2021/07/09 01:04:18;;;;;;;0.40;0.40;;;19.60;99.90;;;;;;4973219;28;20605;-76
2021/07/09 01:06:46;;;;;;;0.30;0.30;;;19.60;99.90;;;;;;4973392;28;20260;-76
2021/07/09 01:09:14;;;;;;;0.30;0.30;;;19.70;99.90;;;;;;4973249;28;20256;-76
2021/07/09 01:11:48;;;;;;;0.40;0.40;;;19.60;99.90;;;;;;4972659;28;20280;-76
2021/07/09 01:14:16;;;;;;;0.30;0.30;;;19.70;99.90;;;;;;4973219;28;20208;-75
2021/07/09 01:16:44;;;;;;;0.20;0.20;;;19.80;99.90;;;;;;4972899;28;20209;-76
2021/07/09 01:19:15;;;;;;;0.30;0.30;;;19.80;99.90;;;;;;4972905;28;20207;-76
2021/07/09 01:21:43;;;;;;;0.30;0.30;;;19.80;99.90;;;;;;4972964;28;20734;-76
2021/07/09 01:24:13;;;;;;;0.25;0.25;;;19.80;99.90;;;;;;4972878;28;20662;-76
2021/07/09 01:26:42;;;;;;;0.28;0.28;;;19.90;99.90;;;;;;4972460;28;20204;-76
2021/07/09 01:29:11;;;;;;;0.30;0.30;;;19.80;99.90;;;;;;4973012;28;20204;-77
2021/07/09 01:31:38;;;;;;;0.40;0.40;;;19.80;99.90;;;;;;4972681;28;20224;-77
2021/07/09 01:34:06;;;;;;;0.20;0.20;;;19.80;99.90;;;;;;4973350;28;20240;-77
2021/07/09 01:36:34;;;;;;;0.20;0.20;;;19.80;99.90;;;;;;4973164;28;20251;-77
2021/07/09 01:39:02;;;;;;;0.30;0.30;;;19.70;99.90;;;;;;4973612;28;20201;-76
2021/07/09 01:41:32;;;;;;;0.30;0.30;;;19.60;99.90;;;;;;4972355;28;20225;-76
2021/07/09 01:44:01;;;;;;;0.22;0.22;;;19.60;99.90;;;;;;4973040;28;20209;-75
2021/07/09 01:46:29;;;;;;;0.30;0.30;;;19.60;99.90;;;;;;4972355;28;20263;-76
2021/07/09 01:48:56;;;;;;;0.30;0.30;;;19.60;99.90;;;;;;4971856;28;20213;-76
2021/07/09 01:51:24;;;;;;;0.30;0.30;;;19.60;99.90;;;;;;4971781;28;20299;-75
2021/07/09 01:53:52;;;;;;;0.30;0.30;;;19.60;99.90;;;;;;4972100;28;20252;-75
2021/07/09 01:56:24;;;;;;;0.30;0.30;;;19.70;99.90;;;;;;4971786;28;20201;-75
2021/07/09 01:58:54;;;;;;;0.30;0.30;;;19.60;99.90;;;;;;4973114;28;20236;-75
2021/07/09 02:01:22;;;;;;;0.40;0.40;;;19.50;99.90;;;;;;4976200;28;20201;-75
2021/07/09 02:03:50;;;;;;;0.30;0.30;;;19.50;99.90;;;;;;4976043;28;20236;-75
2021/07/09 02:06:18;;;;;;;0.30;0.30;;;19.50;99.90;;;;;;4976065;28;20201;-76
2021/07/09 02:08:45;;;;;;;0.30;0.30;;;19.50;99.90;;;;;;4976015;28;20252;-75
2021/07/09 02:11:13;;;;;;;0.30;0.30;;;19.50;99.90;;;;;;4975782;28;20225;-76
2021/07/09 02:13:42;;;;;;;0.30;0.30;;;19.60;99.90;;;;;;4975921;28;20623;-76
2021/07/09 02:16:11;;;;;;;0.30;0.30;;;19.70;99.90;;;;;;4975754;28;20252;-75
2021/07/09 02:18:39;;;;;;;0.30;0.30;;;19.80;99.90;;;;;;4976092;28;20207;-76
2021/07/09 02:21:07;;;;;;;0.30;0.30;;;19.50;99.90;;;;;;4975947;28;20197;-75
2021/07/09 02:23:35;;;;;;;0.40;0.40;;;19.70;99.90;;;;;;4975722;28;20560;-75
2021/07/09 02:26:03;;;;;;;0.30;0.30;;;19.80;99.90;;;;;;4975498;28;20275;-75
2021/07/09 02:28:31;;;;;;;0.30;0.30;;;19.80;99.90;;;;;;4975839;28;20208;-75
2021/07/09 02:30:59;;;;;;;0.30;0.30;;;19.70;99.90;;;;;;4975770;28;20275;-75
2021/07/09 02:33:28;;;;;;;0.40;0.40;;;19.70;99.90;;;;;;4975702;28;20291;-75
2021/07/09 02:35:56;;;;;;;0.22;0.22;;;19.80;99.90;;;;;;4975390;28;20208;-75
2021/07/09 02:38:24;;;;;;;0.30;0.30;;;19.80;99.90;;;;;;4975440;28;20209;-75
2021/07/09 02:40:52;;;;;;;0.30;0.30;;;19.80;99.90;;;;;;4975635;28;20205;-75
2021/07/09 02:43:20;;;;;;;0.30;0.30;;;19.70;99.90;;;;;;4975319;28;20724;-74
2021/07/09 02:45:48;;;;;;;0.30;0.30;;;19.40;99.90;;;;;;4975385;28;20252;-75
2021/07/09 02:48:18;;;;;;;0.40;0.40;;;19.40;99.90;;;;;;4975424;28;20212;-75
2021/07/09 02:50:49;;;;;;;0.40;0.40;;;19.30;99.90;;;;;;4975251;28;20207;-76
2021/07/09 02:53:17;;;;;;;0.40;0.40;;;;;;;;;;4975510;28;20221;-75
2021/07/09 02:55:45;;;;;;;0.40;0.40;;;19.30;99.90;;;;;;4975247;28;20259;-75
2021/07/09 02:58:12;;;;;;;0.30;0.30;;;19.30;99.90;;;;;;4975673;28;20259;-74
2021/07/09 03:00:40;;;;;;;0.30;0.30;;;19.30;99.90;;;;;;4975133;28;20275;-75
2021/07/09 03:03:09;;;;;;;0.30;0.30;;;19.30;99.90;;;;;;4974984;28;20232;-75
2021/07/09 03:05:37;;;;;;;0.30;0.30;;;19.20;99.90;;;;;;4975051;28;20563;-74
2021/07/09 03:08:06;;;;;;;0.30;0.30;;;19.00;99.90;;;;;;4974921;28;20244;-74
2021/07/09 03:10:34;;;;;;;0.30;0.30;;;19.00;99.90;;;;;;4974336;28;20205;-74
2021/07/09 03:13:02;;;;;;;0.40;0.40;;;19.00;99.90;;;;;;4974678;28;20229;-75
2021/07/09 03:15:33;;;;;;;0.30;0.30;;;19.00;99.90;;;;;;4974681;28;20212;-75
2021/07/09 03:18:01;;;;;;;0.30;0.30;;;19.00;99.90;;;;;;4974883;28;20208;-76
2021/07/09 03:20:29;;;;;;;0.30;0.30;;;18.90;99.90;;;;;;4974888;28;20216;-76
2021/07/09 03:22:57;;;;;;;0.40;0.40;;;19.00;99.90;;;;;;4975224;28;20220;-76
2021/07/09 03:25:26;;;;;;;0.30;0.30;;;18.80;99.90;;;;;;4975181;28;20200;-76
2021/07/09 03:27:54;;;;;;;0.40;0.40;;;18.80;99.90;;;;;;4975036;28;20204;-76
2021/07/09 03:30:22;;;;;;;0.30;0.30;;;18.70;99.90;;;;;;4974814;28;20268;-76
2021/07/09 03:32:50;;;;;;;0.35;0.35;;;18.60;99.90;;;;;;4974473;28;20808;-76
2021/07/09 03:35:18;;;;;;;0.30;0.30;;;18.60;99.90;;;;;;4974645;28;20205;-76
2021/07/09 03:37:46;;;;;;;0.30;0.30;;;18.50;99.90;;;;;;4974431;28;20208;-75
2021/07/09 03:40:14;;;;;;;0.40;0.40;;;18.70;99.90;;;;;;4974600;28;20255;-75
2021/07/09 03:42:43;;;;;;;0.30;0.30;;;18.70;99.90;;;;;;4974476;28;20264;-75
2021/07/09 03:45:12;;;;;;;0.30;0.30;;;18.80;99.90;;;;;;4974379;28;20272;-74
2021/07/09 03:47:40;;;;;;;0.30;0.30;;;18.90;99.90;;;;;;4974101;28;20205;-75
2021/07/09 03:50:08;;;;;;;0.30;0.30;;;19.00;99.90;;;;;;4974329;28;20236;-75
2021/07/09 03:52:36;;;;;;;0.40;0.40;;;19.00;99.90;;;;;;4974160;28;20221;-75
2021/07/09 03:55:06;;;;;;;0.30;0.30;;;19.00;99.90;;;;;;4974136;28;20662;-75
2021/07/09 03:57:34;;;;;;;0.30;0.30;;;19.00;99.90;;;;;;4973994;28;20566;-75
2021/07/09 04:00:06;;;;;;;0.20;0.20;;;19.10;99.90;;;;;;4974387;28;20201;-75
2021/07/09 04:02:34;;;;;;;0.20;0.20;;;19.20;99.90;;;;;;4974300;28;20275;-75
2021/07/09 04:05:02;;;;;;;0.30;0.30;;;19.20;99.90;;;;;;4974391;28;20208;-75
2021/07/09 04:07:30;;;;;;;0.38;0.38;;;19.20;99.90;;;;;;4974040;28;20208;-75
2021/07/09 04:09:57;;;;;;;0.30;0.30;;;19.20;99.90;;;;;;4974053;28;20256;-75
2021/07/09 04:12:25;;;;;;;0.40;0.40;;;19.30;99.90;;;;;;4979049;23;20225;-76
2021/07/09 04:14:53;;;;;;;0.40;0.40;;;19.20;99.90;;;;;;4954568;29;20249;-77
2021/07/09 04:17:22;;;;;;;0.30;0.30;;;19.30;99.90;;;;;;4954232;29;20209;-76
2021/07/09 04:19:51;;;;;;;0.30;0.30;;;19.40;99.90;;;;;;4948705;29;20635;-76
2021/07/09 04:22:19;;;;;;;0.30;0.30;;;19.30;99.90;;;;;;4933084;29;20218;-76
2021/07/09 04:24:47;;;;;;;0.30;0.30;;;19.20;99.90;;;;;;4933424;29;20567;-77
2021/07/09 04:27:15;;;;;;;0.30;0.30;;;19.20;99.90;;;;;;4933798;29;20252;-77
2021/07/09 04:29:43;;;;;;;0.20;0.20;;;19.30;99.90;;;;;;4932877;28;20633;-77
2021/07/09 04:32:11;;;;;;;0.28;0.28;;;19.40;99.90;;;;;;4944634;29;20269;-77
2021/07/09 04:34:40;;;;;;;0.30;0.30;;;19.40;99.90;;;;;;4953426;29;20205;-77
2021/07/09 04:37:09;;;;;;;0.20;0.20;;;19.50;99.90;;;;;;4953226;29;20208;-77
2021/07/09 04:39:38;;;;;;;0.30;0.30;;;19.50;99.90;;;;;;4954088;29;20213;-77
2021/07/09 04:42:06;;;;;;;0.30;0.30;;;19.60;99.90;;;;;;4953876;29;20252;-77
2021/07/09 04:44:35;;;;;;;0.30;0.30;;;19.60;99.90;;;;;;4953931;29;20689;-77
2021/07/09 04:47:04;;;;;;;0.30;0.30;;;19.70;99.90;;;;;;4953882;29;20252;-76
2021/07/09 04:49:32;;;;;;;0.30;0.30;;;19.70;99.90;;;;;;4953668;29;20206;-78
2021/07/09 04:52:01;;;;;;;0.20;0.20;;;19.80;99.90;;;;;;4953900;29;20772;-77
2021/07/09 04:54:29;;;;;;;0.20;0.20;;;19.90;99.90;;;;;;4954487;29;20670;-77
2021/07/09 04:56:57;;;;;;;0.20;0.20;;;19.80;99.90;;;;;;4954692;29;20205;-76
2021/07/09 04:59:25;;;;;;;0.20;0.20;;;19.70;99.90;;;;;;4954120;29;20556;-77
2021/07/09 05:01:53;;;;;;;0.20;0.20;;;19.70;99.90;;;;;;4954296;29;20225;-77
2021/07/09 05:04:21;;;;;;;0.28;0.28;;;19.60;99.90;;;;;;4953774;29;20209;-79
2021/07/09 05:06:49;;;;;;;0.30;0.30;;;19.40;99.90;;;;;;4954996;29;20268;-79
2021/07/09 05:09:18;;;;;;;0.22;0.22;;;19.60;99.90;;;;;;4955417;29;20229;-79
2021/07/09 05:11:47;;;;;;;0.30;0.30;;;19.60;99.90;;;;;;4955333;29;20240;-79
2021/07/09 05:14:15;;;;;;;0.30;0.30;;;19.70;99.90;;;;;;4956675;29;20729;-76
2021/07/09 05:16:43;;;;;;;0.20;0.20;;;19.60;99.90;;;;;;4951616;29;20201;-76
2021/07/09 05:19:11;;;;;;;0.30;0.30;;;19.50;99.90;;;;;;4952111;29;20209;-77
2021/07/09 05:21:39;;;;;;;0.30;0.30;;;19.50;99.90;;;;;;4953521;29;20723;-77
2021/07/09 05:24:09;;;;;;;0.20;0.20;;;19.60;99.90;;;;;;4953903;29;20205;-77
2021/07/09 05:26:39;;;;;;;0.40;0.40;;;19.30;99.90;;;;;;4953350;29;20213;-77
2021/07/09 05:29:07;;;;;;;0.20;0.20;;;19.50;99.90;;;;;;4953660;29;20244;-77
2021/07/09 05:31:36;;;;;;;0.20;0.20;;;19.60;99.90;;;;;;4953513;29;20209;-76
2021/07/09 05:34:04;;;;;;;0.30;0.30;;;19.60;99.90;;;;;;4954854;28;20225;-76
2021/07/09 05:36:32;;;;;;;0.30;0.30;;;19.70;99.90;;;;;;4957146;29;20644;-76
2021/07/09 05:39:00;;;;;;;0.20;0.20;;;19.60;99.90;;;;;;4957270;29;20670;-76
2021/07/09 05:41:28;;;;;;;0.30;0.30;;;19.80;99.90;;;;;;4957199;29;20212;-76
2021/07/09 05:43:57;;;;;;;0.30;0.30;;;19.60;99.90;;;;;;4957498;29;20213;-76
2021/07/09 05:46:27;;;;;;;0.28;0.28;;;19.70;99.90;;;;;;4956967;29;20213;-77
2021/07/09 05:48:55;;;;;;;0.30;0.30;;;19.70;99.90;;;;;;4957356;29;20629;-77
2021/07/09 05:51:23;;;;;;;0.40;0.40;;;19.90;99.90;;;;;;4957169;29;20209;-76
2021/07/09 05:53:50;;;;;;;0.35;0.35;;;19.60;99.90;;;;;;4957490;29;20221;-76
2021/07/09 05:56:18;;;;;;;0.30;0.30;;;19.60;99.90;;;;;;4957069;29;20216;-76
2021/07/09 05:58:46;;;;;;;0.22;0.22;;;19.60;99.90;;;;;;4957298;29;20403;-76
2021/07/09 06:01:15;;;;;;;0.30;0.30;;;19.70;99.90;;;;;;4956816;29;20689;-76
2021/07/09 06:03:43;;;;;;;0.30;0.30;;;19.70;99.90;;;;;;4957288;29;20212;-76
2021/07/09 06:06:11;;;;;;;0.40;0.40;;;19.80;99.90;;;;;;4956608;29;20213;-76
2021/07/09 06:08:39;;;;;;;0.30;0.30;;;20.00;99.90;;;;;;4956701;29;20205;-77
2021/07/09 06:11:07;;;;;;;0.30;0.30;;;19.90;99.90;;;;;;4956867;29;20260;-76
2021/07/09 06:13:35;;;;;;;0.30;0.30;;;19.90;99.90;;;;;;4956704;29;20307;-76
2021/07/09 06:16:03;;;;;;;0.20;0.20;;;20.00;99.90;;;;;;4956281;29;20260;-76
2021/07/09 06:18:33;;;;;;;0.30;0.30;;;20.10;99.90;;;;;;4956955;29;20205;-76
2021/07/09 06:21:20;;;;;;;0.20;0.20;;;20.30;99.90;;;;;;4956497;29;20221;-77
2021/07/09 06:23:48;;;;;;;0.20;0.20;;;20.20;99.90;;;;;;4956675;29;20229;-76
2021/07/09 06:26:16;;;;;;;0.30;0.30;;;20.20;99.90;;;;;;4956016;29;20639;-76
2021/07/09 06:28:44;;;;;;;0.30;0.30;;;20.30;99.90;;;;;;4956441;29;20205;-77
2021/07/09 06:31:12;;;;;;;0.30;0.30;;;20.40;99.90;;;;;;4956386;29;20201;-76
2021/07/09 06:33:41;;;;;;;0.30;0.30;;;20.40;99.90;;;;;;4956071;29;20233;-76
2021/07/09 06:36:09;;;;;;;0.30;0.30;;;20.50;99.90;;;;;;4956127;29;20670;-76
2021/07/09 06:38:37;;;;;;;0.30;0.30;;;20.60;99.90;;;;;;4956247;29;20674;-76
2021/07/09 06:41:05;;;;;;;0.20;0.20;;;20.60;99.90;;;;;;4956415;29;20260;-77
2021/07/09 06:43:32;;;;;;;0.30;0.30;;;20.70;99.90;;;;;;4956095;29;20602;-77
2021/07/09 06:46:00;;;;;;;0.30;0.30;;;20.70;99.90;;;;;;4954544;28;20209;-76
2021/07/09 06:48:28;;;;;;;0.30;0.30;;;20.70;99.90;;;;;;4955859;29;20753;-77
2021/07/09 06:50:57;;;;;;;0.20;0.20;;;20.90;99.90;;;;;;4956163;29;20202;-76
2021/07/09 06:53:25;;;;;;;0.30;0.30;;;20.90;99.90;;;;;;4955756;29;20688;-76
2021/07/09 06:55:53;;;;;;;0.30;0.30;;;21.00;99.90;;;;;;4955855;29;20205;-76
2021/07/09 06:58:21;;;;;;;0.30;0.30;;;21.00;99.90;;;;;;4955826;29;20283;-76
2021/07/09 07:00:49;;;;;;;0.30;0.30;;;21.00;99.90;;;;;;4955902;29;20213;-77
2021/07/09 07:03:17;;;;;;;0.30;0.30;;;21.00;99.90;;;;;;4955882;29;20225;-76
2021/07/09 07:05:45;;;;;;;0.20;0.20;;;21.10;99.90;;;;;;4955498;29;20674;-76
2021/07/09 07:08:16;;;;;;;0.20;0.20;;;21.20;99.90;;;;;;4955768;29;20205;-77
2021/07/09 07:10:44;;;;;;;0.20;0.20;;;21.20;99.90;;;;;;4955810;29;20201;-77
2021/07/09 07:13:12;;;;;;;0.20;0.20;;;21.20;99.90;;;;;;4955314;29;20237;-77
2021/07/09 07:15:40;;;;;;;0.20;0.20;;;21.20;99.90;;;;;;4955479;29;20205;-75
2021/07/09 07:18:09;;;;;;;0.20;0.20;;;21.10;99.90;;;;;;4955389;29;20213;-75
2021/07/09 07:20:39;;;;;;;0.20;0.20;;;20.90;99.90;;;;;;4955863;29;20209;-75
2021/07/09 07:23:07;;;;;;;0.30;0.30;;;21.00;99.90;;;;;;4955419;29;20229;-75
2021/07/09 07:25:37;;;;;;;0.30;0.30;;;20.90;99.90;;;;;;4955199;29;20205;-75
2021/07/09 07:28:06;;;;;;;0.20;0.20;;;21.00;99.90;;;;;;4955474;29;20566;-77
2021/07/09 07:30:35;;;;;;;0.30;0.30;;;21.00;99.90;;;;;;4955836;29;20205;-78
2021/07/09 07:33:03;;;;;;;0.20;0.20;;;21.00;99.90;;;;;;4955619;29;20233;-75
2021/07/09 07:35:31;;;;;;;0.30;0.30;;;21.00;99.90;;;;;;4955063;29;20284;-77
2021/07/09 07:37:59;;;;;;;0.40;0.40;;;;;;;;;;4955562;29;20213;-77
2021/07/09 07:40:27;;;;;;;0.20;0.20;;;21.30;99.90;;;;;;4955603;29;20205;-74
2021/07/09 07:42:56;;;;;;;0.20;0.20;;;21.40;99.90;;;;;;4955429;29;20604;-77
2021/07/09 07:45:24;;;;;;;0.20;0.20;;;21.40;99.90;;;;;;4955237;29;20225;-78
2021/07/09 07:47:52;;;;;;;0.20;0.20;;;21.50;99.90;;;;;;4955550;29;20268;-77
2021/07/09 07:50:22;;;;;;;0.20;0.20;;;21.60;99.90;;;;;;4957344;29;20232;-76
2021/07/09 07:52:50;;;;;;;0.20;0.20;;;22.10;99.90;;;;;;4954976;29;20288;-77
2021/07/09 07:55:18;;;;;;;0.20;0.20;;;21.40;99.90;;;;;;4954934;29;20276;-77
2021/07/09 07:57:46;;;;;;;0.20;0.20;;;21.30;99.90;;;;;;4954523;28;20256;-77
2021/07/09 08:00:16;;;;;;;0.20;0.20;;;21.40;99.90;;;;;;4954956;29;20211;-77
2021/07/09 08:02:44;;;;;;;0.20;0.20;;;21.30;99.90;;;;;;4954730;29;20272;-77
2021/07/09 08:05:12;;;;;;;0.30;0.30;;;21.20;99.90;;;;;;4954745;29;20201;-77
2021/07/09 08:07:41;;;;;;;0.20;0.20;;;21.30;99.90;;;;;;4955154;29;20269;-77
2021/07/09 08:10:09;;;;;;;0.30;0.30;;;21.50;99.90;;;;;;4954893;29;20201;-77
2021/07/09 08:12:37;;;;;;;0.30;0.30;;;21.70;99.90;;;;;;4954460;29;20237;-77
2021/07/09 08:15:07;;;;;;;0.35;0.35;;;21.70;99.90;;;;;;4954539;29;20744;-77
2021/07/09 08:17:36;;;;;;;0.30;0.30;;;21.90;99.90;;;;;;4954831;29;20293;-77
2021/07/09 08:20:06;;;;;;;0.20;0.20;;;22.10;99.90;;;;;;4955682;29;20229;-77
2021/07/09 08:22:36;;;;;;;0.20;0.20;;;22.30;99.90;;;;;;4955556;29;20225;-77
2021/07/09 08:25:06;;;;;;;0.30;0.30;;;22.50;99.90;;;;;;4954622;29;20494;-77
2021/07/09 08:27:34;;;;;;;0.30;0.30;;;22.60;99.90;;;;;;4954285;29;20276;-76
2021/07/09 08:30:02;;;;;;;0.30;0.30;;;22.60;99.90;;;;;;4954357;29;20201;-77
2021/07/09 08:32:32;;;;;;;0.30;0.30;;;;;;;;;;4954131;29;20288;-77
2021/07/09 08:35:01;;;;;;;0.20;0.20;;;22.70;99.90;;;;;;4955107;29;20235;-77
2021/07/09 08:37:49;;;;;;;0.20;0.20;;;22.60;99.90;;;;;;4953674;29;20257;-77
2021/07/09 08:40:17;;;;;;;0.30;0.30;;;22.80;99.90;;;;;;4954284;29;20205;-77
2021/07/09 08:42:47;;;;;;;0.20;0.20;;;22.80;99.90;;;;;;4954036;29;20221;-77
2021/07/09 08:45:15;;;;;;;0.30;0.30;;;22.90;99.90;;;;;;4953904;29;20205;-77
2021/07/09 08:47:43;;;;;;;0.30;0.30;;;22.90;99.90;;;;;;4954170;29;20209;-77
2021/07/09 08:50:13;;;;;;;0.20;0.20;;;22.90;99.90;;;;;;4953979;29;20292;-77
2021/07/09 08:52:42;;;;;;;0.20;0.20;;;22.90;99.90;;;;;;4954041;29;20256;-77
2021/07/09 08:55:12;;;;;;;0.20;0.20;;;23.00;99.90;;;;;;4953836;29;20304;-77
2021/07/09 08:57:41;;;;;;;0.30;0.30;;;23.00;99.90;;;;;;4954018;29;20520;-77
2021/07/09 09:00:38;;;;;;;0.30;0.30;;;23.00;99.90;;;;;;4953804;29;20675;-77
2021/07/09 09:03:12;;;;;;;0.20;0.20;;;23.00;99.90;;;;;;4953850;29;20225;-77
2021/07/09 09:05:42;;;;;;;0.20;0.20;;;23.00;99.90;;;;;;4953827;29;20206;-78
2021/07/09 09:08:11;;;;;;;0.20;0.20;;;23.10;99.90;;;;;;4953766;28;20623;-77
2021/07/09 09:10:41;;;;;;;0.25;0.25;;;23.20;99.90;;;;;;4958041;29;20213;-77
2021/07/09 09:13:10;;;;;;;0.20;0.20;;;23.20;99.90;;;;;;4957515;29;20256;-77
2021/07/09 09:15:39;;;;;;;0.20;0.20;;;23.20;99.90;;;;;;4957706;29;20698;-77
2021/07/09 09:18:29;;;;;;;0.20;0.20;;;23.30;99.90;;;;;;4958743;29;20211;-77
2021/07/09 09:21:00;;;;;;;0.20;0.20;;;23.40;99.90;;;;;;4959102;29;20209;-77
2021/07/09 09:23:31;;;;;;;0.20;0.20;;;23.40;99.90;;;;;;4962591;29;20718;-77
2021/07/09 09:25:59;;;;;;;0.20;0.20;;;23.70;99.90;;;;;;4963440;29;20201;-77
2021/07/09 09:28:29;;;;;;;0.20;0.20;;;23.80;99.90;;;;;;4960559;29;20201;-78
2021/07/09 09:30:58;;;;;;;0.20;0.20;;;23.80;99.90;;;;;;4959817;29;20225;-78
2021/07/09 09:33:33;;;;;;;0.20;0.20;;;23.80;99.90;;;;;;4958398;29;20225;-76
2021/07/09 09:36:06;;;;;;;0.20;0.20;;;23.70;99.90;;;;;;4958467;29;20236;-78
2021/07/09 09:38:34;;;;;;;0.20;0.20;;;23.90;99.90;;;;;;4959161;29;20268;-77
2021/07/09 09:41:03;;;;;;;0.20;0.20;;;23.90;99.90;;;;;;4958272;29;20229;-78
2021/07/09 09:43:33;;;;;;;0.30;0.30;;;24.00;99.90;;;;;;4958621;29;20253;-77
2021/07/09 09:46:04;;;;;;;0.20;0.20;;;24.10;99.90;;;;;;4959068;29;20296;-78
2021/07/09 09:48:38;;;;;;;0.20;0.20;;;24.20;99.90;;;;;;4959782;29;20237;-78
2021/07/09 09:51:27;;;;;;;0.20;0.20;;;24.20;99.90;;;;;;4960738;29;20622;-78
2021/07/09 09:53:57;;;;;;;0.20;0.20;;;24.30;99.90;;;;;;4958838;29;20662;-78
2021/07/09 09:56:43;;;;;;;0.20;0.20;;;24.30;99.90;;;;;;4958634;29;20225;-77
2021/07/09 09:59:22;;;;;;;0.20;0.20;;;24.00;99.90;;;;;;4959486;29;20209;-77
2021/07/09 10:01:55;;;;;;;0.20;0.20;;;23.80;99.90;;;;;;4959601;29;20781;-78
2021/07/09 10:04:25;;;;;;;0.20;0.20;;;23.70;99.90;;;;;;4959388;29;20551;-78
2021/07/09 10:06:55;;;;;;;0.20;0.20;;;23.60;99.90;;;;;;4959204;29;20256;-78
2021/07/09 10:09:25;;;;;;;0.20;0.20;;;23.50;99.90;;;;;;4959636;29;20565;-78
2021/07/09 10:11:55;;;;;;;0.30;0.30;;;23.10;99.90;;;;;;4972701;23;20237;-76
2021/07/09 10:14:26;;;;;;;0.20;0.20;;;23.60;99.90;;;;;;4975348;28;20220;-76
2021/07/09 10:17:00;;;;;;;0.22;0.22;;;23.20;99.90;;;;;;4976062;28;20643;-76
2021/07/09 10:19:32;;;;;;;0.20;0.20;;;23.30;99.90;;;;;;4975795;28;20209;-76
2021/07/09 10:22:02;;;;;;;0.20;0.20;;;23.10;99.90;;;;;;4975835;28;20213;-75
2021/07/09 10:24:30;;;;;;;0.20;0.20;;;23.00;99.90;;;;;;4975766;28;20283;-76
2021/07/09 10:26:58;;;;;;;0.20;0.20;;;22.90;99.90;;;;;;4975465;28;20577;-76
2021/07/09 10:29:28;;;;;;;0.30;0.30;;;22.90;99.90;;;;;;4975881;28;20263;-76
2021/07/09 10:31:56;;;;;;;0.20;0.20;;;22.60;99.90;;;;;;4975808;28;20201;-76
2021/07/09 10:34:37;;;;;;;0.20;0.20;;;22.70;99.90;;;;;;4975498;28;20669;-76
2021/07/09 10:37:09;;;;;;;0.20;0.20;;;23.00;99.90;;;;;;4975485;28;20303;-76
2021/07/09 10:39:41;;;;;;;0.20;0.20;;;23.30;99.90;;;;;;4975395;28;20697;-76
2021/07/09 10:42:39;;;;;;;0.20;0.20;;;23.50;99.90;;;;;;4975382;28;20225;-76
2021/07/09 10:45:10;;;;;;;0.20;0.20;;;23.60;99.90;;;;;;4975138;28;20554;-76
2021/07/09 10:47:42;;;;;;;0.20;0.20;;;23.70;99.90;;;;;;4975387;28;20259;-77
2021/07/09 10:50:10;;;;;;;0.20;0.20;;;23.60;99.90;;;;;;4975133;28;20212;-77
2021/07/09 10:52:46;;;;;;;0.20;0.20;;;23.30;99.90;;;;;;4975269;28;20228;-75
2021/07/09 10:55:44;;;;;;;0.30;0.30;;;23.30;99.90;;;;;;4974949;28;20208;-75
2021/07/09 10:58:30;;;;;;;0.20;0.20;;;23.20;99.90;;;;;;4975136;28;20620;-75
2021/07/09 11:00:59;;;;;;;0.20;0.20;;;23.00;99.90;;;;;;4975290;28;20205;-75
2021/07/09 11:03:33;;;;;;;0.20;0.20;;;23.20;99.90;;;;;;4975199;28;20224;-75
2021/07/09 11:06:07;;;;;;;0.20;0.20;;;23.40;99.90;;;;;;4975376;28;20637;-75
2021/07/09 11:09:01;;;;;;;0.20;0.20;;;23.50;99.90;;;;;;4975000;28;20204;-75
2021/07/09 11:11:45;;;;;;;0.20;0.20;;;23.50;99.90;;;;;;4975054;28;20197;-76
2021/07/09 11:14:15;;;;;;;0.20;0.20;;;23.50;99.90;;;;;;4974735;28;20212;-75
2021/07/09 11:16:49;;;;;;;0.30;0.30;;;23.60;99.90;;;;;;4974703;28;20232;-76
2021/07/09 11:19:29;;;;;;;0.20;0.20;;;23.60;99.90;;;;;;4975043;28;20211;-76
2021/07/09 11:22:05;;;;;;;0.20;0.20;;;23.70;99.90;;;;;;4974945;28;20517;-76
2021/07/09 11:24:49;;;;;;;0.20;0.20;;;23.70;99.90;;;;;;4974700;28;20207;-76
2021/07/09 11:27:24;;;;;;;0.20;0.20;;;23.70;99.90;;;;;;4974370;28;20217;-76
2021/07/09 11:29:59;;;;;;;0.20;0.20;;;23.50;99.90;;;;;;4974761;28;20208;-76
2021/07/09 11:32:33;;;;;;;0.20;0.20;;;23.50;99.90;;;;;;4973929;28;20235;-76
2021/07/09 11:35:02;;;;;;;0.20;0.20;;;23.50;99.90;;;;;;4974524;28;20209;-76
2021/07/09 11:37:32;;;;;;;0.30;0.30;;;23.50;99.90;;;;;;4974306;28;20228;-76
2021/07/09 11:40:06;;;;;;;0.30;0.30;;;23.70;99.90;;;;;;4974271;28;20283;-76
2021/07/09 11:42:36;;;;;;;0.20;0.20;;;23.90;99.90;;;;;;4974498;28;20315;-76
2021/07/09 11:45:07;;;;;;;0.20;0.20;;;24.00;99.90;;;;;;4974580;28;20201;-75
2021/07/09 11:47:36;;;;;;;0.20;0.20;;;24.20;99.90;;;;;;4974276;28;20614;-76
2021/07/09 11:50:06;;;;;;;0.20;0.20;;;24.30;99.90;;;;;;4974405;28;20212;-75
2021/07/09 11:52:36;;;;;;;0.20;0.20;;;24.60;99.90;;;;;;4976348;28;20217;-77
2021/07/09 11:55:08;;;;;;;0.20;0.20;;;24.80;99.90;;;;;;4975564;28;20212;-76
2021/07/09 11:57:38;;;;;;;0.20;0.20;;;24.90;99.90;;;;;;4974074;28;20220;-77
2021/07/09 12:00:10;;;;;;;0.20;0.20;;;25.10;99.90;;;;;;4974081;28;20283;-76
2021/07/09 12:02:39;;;;;;;0.20;0.20;;;25.20;99.90;;;;;;4974045;28;20224;-77
2021/07/09 12:05:10;;;;;;;0.20;0.20;;;25.30;99.90;;;;;;4974006;28;20208;-76
2021/07/09 12:07:39;;;;;;;0.20;0.20;;;25.20;99.90;;;;;;4974312;28;20221;-76
2021/07/09 12:10:12;;;;;;;0.20;0.20;;;25.20;99.90;;;;;;4973920;28;20209;-76
2021/07/09 12:12:43;;;;;;;0.20;0.20;;;24.90;99.90;;;;;;4973779;28;20228;-76
2021/07/09 12:15:17;;;;;;;0.20;0.20;;;24.90;99.90;;;;;;4973858;28;20292;-76
2021/07/09 12:17:47;;;;;;;0.10;0.10;;;24.80;99.90;;;;;;4973971;28;20228;-76
2021/07/09 12:20:22;;;;;;;0.20;0.20;;;25.00;99.90;;;;;;4973886;28;20235;-76
2021/07/09 12:22:55;;;;;;;0.20;0.20;;;25.00;99.90;;;;;;4973644;28;20228;-76
2021/07/09 12:25:26;;;;;;;0.20;0.20;;;25.00;99.90;;;;;;4973512;28;20212;-77
2021/07/09 12:27:55;;;;;;;0.10;0.10;;;25.40;99.90;;;;;;4973610;28;20618;-78
2021/07/09 12:30:26;;;;;;;0.20;0.20;;;25.40;99.90;;;;;;4973875;28;20205;-76
2021/07/09 12:32:57;;;;;;;0.10;0.10;;;25.60;99.90;;;;;;4974982;28;20255;-78
2021/07/09 12:35:36;;;;;;;0.10;0.10;;;25.80;99.90;;;;;;4973567;28;20670;-77
2021/07/09 12:38:06;;;;;;;0.20;0.20;;;25.60;99.90;;;;;;4973372;28;20697;-77
2021/07/09 12:40:38;;;;;;;0.10;0.10;;;25.40;99.90;;;;;;4972453;28;20227;-77
2021/07/09 12:43:17;;;;;;;0.20;0.20;;;25.40;99.90;;;;;;4971593;28;20283;-77
2021/07/09 12:45:54;;;;;;;0.20;0.20;;;25.40;99.90;;;;;;4971339;28;20253;-77
2021/07/09 12:48:37;;;;;;;0.20;0.20;;;24.90;99.90;;;;;;4971870;28;20242;-76
2021/07/09 12:51:16;;;;;;;0.20;0.20;;;24.20;99.90;;;;;;4971776;28;20239;-76
2021/07/09 12:53:55;;;;;;;0.20;0.20;;;24.40;99.90;;;;;;4971758;28;20229;-76
2021/07/09 12:56:27;;;;;;;0.30;0.30;;;23.40;99.90;;;;;;4972886;28;20208;-76
2021/07/09 12:59:03;;;;;;;0.20;0.20;;;23.50;99.90;;;;;;4973272;28;20263;-76
2021/07/09 13:01:32;;;;;;;0.20;0.20;;;23.50;99.90;;;;;;4973351;28;20243;-75
2021/07/09 13:04:00;;;;;;;0.30;0.30;;;23.30;99.90;;;;;;4973099;28;20225;-76